createdAt,value
2022-08-10T00:00:04.778Z,1019.46
2022-08-10T00:05:03.173Z,1019.42
2022-08-10T00:10:04.338Z,1019.45
2022-08-10T00:15:03.339Z,1019.45
2022-08-10T00:20:08.381Z,1019.42
2022-08-10T00:25:03.254Z,1019.45
2022-08-10T00:30:06.161Z,1019.4
2022-08-10T00:35:03.212Z,1019.35
2022-08-10T00:40:04.686Z,1019.31
2022-08-10T00:45:03.225Z,1019.27
2022-08-10T00:50:04.409Z,1019.28
2022-08-10T00:55:03.178Z,1019.21
2022-08-10T01:00:04.496Z,1019.19
2022-08-10T01:05:03.452Z,1019.17
2022-08-10T01:10:04.369Z,1019.17
2022-08-10T01:15:03.145Z,1019.17
2022-08-10T01:20:04.341Z,1019.14
2022-08-10T01:25:03.260Z,1019.13
2022-08-10T01:30:05.189Z,1019.15
2022-08-10T01:35:03.190Z,1019.12
2022-08-10T01:40:04.501Z,1019.14
2022-08-10T01:45:03.246Z,1019.15
2022-08-10T01:50:04.226Z,1019.12
2022-08-10T01:55:03.215Z,1019.08
2022-08-10T02:00:04.443Z,1018.99
2022-08-10T02:05:03.251Z,1019.09
2022-08-10T02:10:04.234Z,1019.1
2022-08-10T02:15:03.161Z,1018.97
2022-08-10T02:20:04.268Z,1018.98
2022-08-10T02:25:03.157Z,1019.0
2022-08-10T02:30:04.873Z,1018.99
2022-08-10T02:35:03.191Z,1018.99
2022-08-10T02:40:04.301Z,1018.94
2022-08-10T02:45:24.993Z,1018.92
2022-08-10T02:50:04.341Z,1018.94
2022-08-10T02:55:04.736Z,1018.87
2022-08-10T03:00:05.043Z,1018.85
2022-08-10T03:05:03.437Z,1018.85
2022-08-10T03:10:04.528Z,1018.85
2022-08-10T03:15:03.176Z,1018.81
2022-08-10T03:20:36.285Z,1018.78
2022-08-10T03:25:03.279Z,1018.69
2022-08-10T03:30:23.615Z,1018.67
2022-08-10T03:35:03.180Z,1018.65
2022-08-10T03:40:09.326Z,1018.6
2022-08-10T03:45:03.481Z,1018.59
2022-08-10T03:50:24.659Z,1018.59
2022-08-10T03:55:03.210Z,1018.56
2022-08-10T04:00:05.409Z,1018.53
2022-08-10T04:05:03.250Z,1018.43
2022-08-10T04:10:06.746Z,1018.42
2022-08-10T04:15:03.218Z,1018.39
2022-08-10T04:20:04.274Z,1018.44
2022-08-10T04:25:03.249Z,1018.34
2022-08-10T04:30:04.773Z,1018.32
2022-08-10T04:35:03.171Z,1018.33
2022-08-10T04:40:04.303Z,1018.26
2022-08-10T04:45:03.199Z,1018.24
2022-08-10T04:50:04.320Z,1018.23
2022-08-10T04:55:03.348Z,1018.21
2022-08-10T05:00:07.514Z,1018.23
2022-08-10T05:05:03.106Z,1018.19
2022-08-10T05:10:06.680Z,1018.09
2022-08-10T05:15:03.148Z,1018.01
2022-08-10T05:20:06.611Z,1017.99
2022-08-10T05:25:03.206Z,1017.95
2022-08-10T05:30:06.227Z,1017.9
2022-08-10T05:35:03.146Z,1017.87
2022-08-10T05:40:04.360Z,1017.78
2022-08-10T05:45:03.167Z,1017.79
2022-08-10T05:50:04.233Z,1017.71
2022-08-10T05:55:03.262Z,1017.65
2022-08-10T06:00:09.348Z,1017.57
2022-08-10T06:05:03.214Z,1017.52
2022-08-10T06:10:04.383Z,1017.47
2022-08-10T06:20:06.977Z,1017.32
2022-08-10T06:30:04.780Z,1017.24
2022-08-10T06:35:03.309Z,1017.14
2022-08-10T06:40:09.274Z,1017.1
2022-08-10T06:45:03.196Z,1016.97
2022-08-10T06:50:05.059Z,1016.93
2022-08-10T06:55:05.329Z,1016.89
2022-08-10T07:00:04.677Z,1016.89
2022-08-10T07:05:03.274Z,1016.84
2022-08-10T07:10:04.192Z,1016.79
2022-08-10T07:15:04.332Z,1016.73
2022-08-10T07:20:04.519Z,1016.76
2022-08-10T07:25:05.932Z,1016.7
2022-08-10T07:30:04.988Z,1016.63
2022-08-10T07:35:04.328Z,1016.56
2022-08-10T07:40:05.014Z,1016.44
2022-08-10T07:45:03.128Z,1016.45
2022-08-10T07:50:04.085Z,1016.43
2022-08-10T07:55:03.352Z,1016.43
2022-08-10T08:00:04.857Z,1016.38
2022-08-10T08:05:03.337Z,1016.36
2022-08-10T08:10:04.177Z,1016.29
2022-08-10T08:15:14.804Z,1016.2
2022-08-10T08:20:04.279Z,1016.17
2022-08-10T08:25:03.351Z,1016.19
2022-08-10T08:30:04.897Z,1016.18
2022-08-10T08:35:03.292Z,1016.21
2022-08-10T08:40:04.200Z,1016.2
2022-08-10T08:45:03.214Z,1016.2
2022-08-10T08:50:05.447Z,1016.29
2022-08-10T08:55:03.263Z,1016.36
2022-08-10T09:00:04.847Z,1016.49
2022-08-10T09:05:03.222Z,1016.64
2022-08-10T09:10:04.188Z,1016.68
2022-08-10T09:15:03.329Z,1016.72
2022-08-10T09:20:04.242Z,1016.73
2022-08-10T09:25:03.757Z,1016.73
2022-08-10T09:30:04.703Z,1016.8
2022-08-10T09:36:18.804Z,1016.82
2022-08-10T09:40:06.411Z,1016.87
2022-08-10T09:45:03.187Z,1016.84
2022-08-10T09:50:05.003Z,1016.81
2022-08-10T09:55:03.163Z,1016.92
2022-08-10T10:00:04.882Z,1016.92
2022-08-10T10:05:03.383Z,1016.92
2022-08-10T10:10:04.362Z,1017.0
2022-08-10T10:15:03.111Z,1017.02
2022-08-10T10:20:04.243Z,1017.03
2022-08-10T10:25:20.106Z,1017.05
2022-08-10T10:30:04.681Z,1017.11
2022-08-10T10:35:03.241Z,1017.17
2022-08-10T10:40:09.179Z,1017.14
2022-08-10T10:45:03.504Z,1017.23
2022-08-10T10:50:04.249Z,1017.28
2022-08-10T10:55:03.229Z,1017.36
2022-08-10T11:00:04.637Z,1017.46
2022-08-10T11:05:03.288Z,1017.51
2022-08-10T11:10:09.922Z,1017.64
2022-08-10T11:15:03.309Z,1017.7
2022-08-10T11:20:04.503Z,1017.7
2022-08-10T11:25:03.427Z,1017.7
2022-08-10T11:30:04.878Z,1017.82
2022-08-10T11:35:10.750Z,1017.79
2022-08-10T11:40:04.144Z,1017.72
2022-08-10T11:45:03.096Z,1017.72
2022-08-10T11:50:04.216Z,1017.74
2022-08-10T11:55:03.175Z,1017.74
2022-08-10T12:00:04.733Z,1017.8
2022-08-10T12:05:03.301Z,1017.89
2022-08-10T12:10:13.315Z,1018.04
2022-08-10T12:15:03.349Z,1018.23
2022-08-10T12:20:04.245Z,1018.41
2022-08-10T12:25:03.173Z,1018.49
2022-08-10T12:30:05.485Z,1018.51
2022-08-10T12:35:03.272Z,1018.65
2022-08-10T12:40:31.715Z,1018.8
2022-08-10T12:45:03.335Z,1018.84
2022-08-10T12:50:13.825Z,1018.95
2022-08-10T12:55:03.169Z,1019.04
2022-08-10T13:00:04.657Z,1019.18
2022-08-10T13:05:03.381Z,1019.36
2022-08-10T13:10:04.500Z,1019.36
2022-08-10T13:15:03.254Z,1019.41
2022-08-10T13:20:12.600Z,1019.54
2022-08-10T13:25:06.234Z,1019.57
2022-08-10T13:30:05.262Z,1019.58
2022-08-10T13:35:03.282Z,1019.59
2022-08-10T13:40:04.362Z,1019.58
2022-08-10T13:45:03.275Z,1019.63
2022-08-10T13:50:04.218Z,1019.58
2022-08-10T13:55:03.219Z,1019.59
2022-08-10T14:00:35.697Z,1019.58
2022-08-10T14:05:03.231Z,1019.53
2022-08-10T14:10:04.277Z,1019.7
2022-08-10T14:15:03.267Z,1019.81
2022-08-10T14:20:04.164Z,1019.87
2022-08-10T14:25:03.245Z,1019.94
2022-08-10T14:30:06.700Z,1019.98
2022-08-10T14:36:15.864Z,1019.96
2022-08-10T14:40:04.082Z,1019.94
2022-08-10T14:45:03.312Z,1020.02
2022-08-10T14:50:05.045Z,1020.12
2022-08-10T14:55:04.367Z,1020.07
2022-08-10T15:00:20.872Z,1020.05
2022-08-10T15:05:03.431Z,1020.03
2022-08-10T15:10:04.708Z,1020.07
2022-08-10T15:15:03.258Z,1020.05
2022-08-10T15:20:14.023Z,1020.11
2022-08-10T15:25:03.314Z,1020.18
2022-08-10T15:30:05.780Z,1020.21
2022-08-10T15:35:03.158Z,1020.12
2022-08-10T15:40:22.798Z,1020.04
2022-08-10T15:45:03.322Z,1020.13
2022-08-10T15:50:04.128Z,1020.1
2022-08-10T15:55:03.297Z,1020.02
2022-08-10T16:00:04.953Z,1020.0
2022-08-10T16:05:03.170Z,1019.96
2022-08-10T16:10:11.238Z,1020.01
2022-08-10T16:15:04.460Z,1019.96
2022-08-10T16:20:04.164Z,1019.94
2022-08-10T16:25:03.112Z,1019.87
2022-08-10T16:40:04.402Z,1019.82
2022-08-10T16:45:04.276Z,1019.78
2022-08-10T16:50:04.354Z,1019.87
2022-08-10T16:55:05.492Z,1019.87
2022-08-10T17:00:05.446Z,1019.84
2022-08-10T17:05:03.133Z,1019.8
2022-08-10T17:10:06.552Z,1019.76
2022-08-10T17:15:09.294Z,1019.79
2022-08-10T17:20:31.192Z,1019.65
2022-08-10T17:25:04.399Z,1019.61
2022-08-10T17:30:07.075Z,1019.67
2022-08-10T17:35:03.150Z,1019.67
2022-08-10T17:40:04.085Z,1019.62
2022-08-10T17:45:03.217Z,1019.62
2022-08-10T17:50:04.182Z,1019.6
2022-08-10T17:55:03.372Z,1019.64
2022-08-10T18:00:04.753Z,1019.59
2022-08-10T18:05:03.399Z,1019.51
2022-08-10T18:10:04.235Z,1019.33
2022-08-10T18:15:03.163Z,1019.33
2022-08-10T18:20:04.279Z,1019.33
2022-08-10T18:25:03.299Z,1019.43
2022-08-10T18:30:06.656Z,1019.49
2022-08-10T18:35:03.174Z,1019.51
2022-08-10T18:40:09.259Z,1019.52
2022-08-10T18:45:03.270Z,1019.65
2022-08-10T18:50:04.153Z,1019.55
2022-08-10T18:55:03.294Z,1019.56
2022-08-10T19:00:08.526Z,1019.64
2022-08-10T19:05:03.144Z,1019.6
2022-08-10T19:10:04.223Z,1019.65
2022-08-10T19:15:05.468Z,1019.63
2022-08-10T19:20:04.082Z,1019.61
2022-08-10T19:25:03.402Z,1019.66
2022-08-10T19:30:10.461Z,1019.64
2022-08-10T19:35:03.129Z,1019.64
2022-08-10T19:40:04.427Z,1019.69
2022-08-10T19:45:03.186Z,1019.77
2022-08-10T19:50:04.279Z,1019.9
2022-08-10T19:55:03.353Z,1019.97
2022-08-10T20:00:06.363Z,1020.01
2022-08-10T20:05:03.122Z,1020.06
2022-08-10T20:10:04.427Z,1020.13
2022-08-10T20:15:03.192Z,1020.18
2022-08-10T20:20:04.263Z,1020.21
2022-08-10T20:25:04.511Z,1020.29
2022-08-10T20:30:04.958Z,1020.36
2022-08-10T20:35:03.106Z,1020.42
2022-08-10T20:40:04.231Z,1020.49
2022-08-10T20:45:04.268Z,1020.55
2022-08-10T20:50:04.271Z,1020.59
2022-08-10T20:55:03.335Z,1020.62
2022-08-10T21:00:05.429Z,1020.63
2022-08-10T21:05:03.313Z,1020.71
2022-08-10T21:10:04.186Z,1020.78
2022-08-10T21:15:03.397Z,1020.74
2022-08-10T21:20:04.281Z,1020.76
2022-08-10T21:25:03.292Z,1020.7
2022-08-10T21:30:08.449Z,1020.65
2022-08-10T21:35:03.066Z,1020.58
2022-08-10T21:40:04.296Z,1020.53
2022-08-10T21:45:04.393Z,1020.52
2022-08-10T21:50:07.391Z,1020.56
2022-08-10T21:55:03.293Z,1020.6
2022-08-10T22:00:04.789Z,1020.61
2022-08-10T22:05:03.386Z,1020.7
2022-08-10T22:10:05.315Z,1020.82
2022-08-10T22:15:03.221Z,1020.86
2022-08-10T22:20:04.343Z,1020.91
2022-08-10T22:25:03.241Z,1020.93
2022-08-10T22:30:04.583Z,1021.11
2022-08-10T22:35:03.237Z,1021.17
2022-08-10T22:40:06.014Z,1021.2
2022-08-10T22:45:03.193Z,1021.23
2022-08-10T22:50:07.444Z,1021.28
2022-08-10T22:55:03.224Z,1021.34
2022-08-10T23:00:04.630Z,1021.43
2022-08-10T23:05:03.365Z,1021.56
2022-08-10T23:10:04.409Z,1021.7
2022-08-10T23:15:03.342Z,1021.73
2022-08-10T23:20:09.259Z,1021.71
2022-08-10T23:25:03.238Z,1021.82
2022-08-10T23:30:10.050Z,1022.0
2022-08-10T23:36:05.074Z,1021.99
2022-08-10T23:40:04.629Z,1022.02
2022-08-10T23:45:03.143Z,1022.02
2022-08-10T23:50:04.234Z,1022.02
2022-08-10T23:55:03.222Z,1022.11
